createdAt,value
2018-05-18T00:00:16.425Z,74.23
2018-05-18T00:02:44.685Z,77.93
2018-05-18T00:05:12.149Z,73.17
2018-05-18T00:07:40.384Z,72.13
2018-05-18T00:10:07.881Z,75.27
2018-05-18T00:12:35.444Z,68.93
2018-05-18T00:15:02.906Z,66.77
2018-05-18T00:17:30.371Z,72.03
2018-05-18T00:19:57.884Z,73.90
2018-05-18T00:22:25.369Z,75.80
2018-05-18T00:24:52.836Z,64.17
2018-05-18T00:27:20.380Z,72.83
2018-05-18T00:29:47.844Z,73.40
2018-05-18T00:32:15.314Z,69.67
2018-05-18T00:34:42.865Z,67.70
2018-05-18T00:37:10.331Z,68.57
2018-05-18T00:39:37.885Z,69.30
2018-05-18T00:42:05.501Z,75.63
2018-05-18T00:44:33.001Z,67.37
2018-05-18T00:47:00.476Z,67.37
2018-05-18T00:49:27.949Z,69.57
2018-05-18T00:51:56.192Z,70.10
2018-05-18T00:54:23.664Z,71.87
2018-05-18T00:56:51.133Z,66.03
2018-05-18T00:59:19.388Z,68.90
2018-05-18T01:01:46.941Z,70.30
2018-05-18T01:04:14.408Z,63.00
2018-05-18T01:06:41.967Z,61.27
2018-05-18T01:09:09.529Z,63.10
2018-05-18T01:11:37.002Z,69.17
2018-05-18T01:14:04.469Z,70.87
2018-05-18T01:16:32.705Z,70.63
2018-05-18T01:19:00.190Z,68.60
2018-05-18T01:21:27.745Z,68.87
2018-05-18T01:23:55.213Z,67.23
2018-05-18T01:26:22.758Z,75.20
2018-05-18T01:28:50.323Z,75.37
2018-05-18T01:31:17.877Z,66.03
2018-05-18T01:33:45.441Z,72.07
2018-05-18T01:36:12.908Z,73.10
2018-05-18T01:38:40.370Z,66.77
2018-05-18T01:41:07.913Z,72.67
2018-05-18T01:43:35.380Z,72.03
2018-05-18T01:46:02.849Z,67.17
2018-05-18T01:48:31.081Z,77.17
2018-05-18T01:50:58.565Z,74.53
2018-05-18T01:53:26.029Z,87.00
2018-05-18T01:55:53.501Z,78.93
2018-05-18T01:58:21.735Z,67.63
2018-05-18T02:00:49.217Z,70.07
2018-05-18T02:03:16.735Z,69.73
2018-05-18T02:05:44.189Z,72.57
2018-05-18T02:08:11.697Z,69.80
2018-05-18T02:10:39.160Z,68.57
2018-05-18T02:13:06.712Z,71.87
2018-05-18T02:15:34.180Z,66.03
2018-05-18T02:18:01.734Z,74.93
2018-05-18T02:20:29.290Z,68.77
2018-05-18T02:22:56.849Z,71.07
2018-05-18T02:25:24.325Z,67.93
2018-05-18T02:27:51.789Z,74.67
2018-05-18T02:30:20.023Z,67.27
2018-05-18T02:32:47.560Z,68.93
2018-05-18T02:35:15.025Z,69.83
2018-05-18T02:37:42.484Z,68.90
2018-05-18T02:40:09.969Z,68.83
2018-05-18T02:42:37.537Z,70.97
2018-05-18T02:45:05.009Z,67.57
2018-05-18T02:47:32.561Z,72.13
2018-05-18T02:50:00.036Z,76.60
2018-05-18T02:52:27.609Z,71.47
2018-05-18T02:54:55.754Z,71.63
2018-05-18T02:57:23.222Z,74.50
2018-05-18T02:59:50.691Z,78.37
2018-05-18T03:02:18.940Z,74.47
2018-05-18T03:04:46.501Z,67.10
2018-05-18T03:07:13.984Z,70.17
2018-05-18T03:09:42.245Z,73.37
2018-05-18T03:12:10.517Z,78.80
2018-05-18T03:14:38.081Z,76.57
2018-05-18T03:17:05.549Z,70.57
2018-05-18T03:19:33.008Z,64.27
2018-05-18T03:22:01.248Z,68.97
2018-05-18T03:24:28.724Z,70.50
2018-05-18T03:26:56.206Z,68.30
2018-05-18T03:29:23.664Z,64.53
2018-05-18T03:31:51.921Z,64.43
2018-05-18T03:34:19.389Z,66.80
2018-05-18T03:36:46.941Z,63.20
2018-05-18T03:39:14.416Z,57.87
2018-05-18T03:41:42.643Z,59.80
2018-05-18T03:44:10.131Z,62.03
2018-05-18T03:46:37.596Z,62.40
2018-05-18T03:49:05.056Z,65.47
2018-05-18T03:51:32.534Z,61.80
2018-05-18T03:54:00.766Z,67.03
2018-05-18T03:56:28.350Z,64.90
2018-05-18T03:58:55.812Z,69.10
2018-05-18T04:01:35.250Z,59.50
2018-05-18T04:04:14.677Z,64.83
2018-05-18T04:06:54.116Z,59.33
2018-05-18T04:09:22.401Z,59.20
2018-05-18T04:11:49.956Z,66.40
2018-05-18T04:14:17.475Z,56.37
2018-05-18T04:16:45.965Z,60.57
2018-05-18T04:19:13.476Z,59.27
2018-05-18T04:21:41.712Z,57.63
2018-05-18T04:24:09.189Z,65.10
2018-05-18T04:26:36.654Z,60.67
2018-05-18T04:29:04.117Z,58.17
2018-05-18T04:31:31.585Z,56.83
2018-05-18T04:33:59.821Z,60.57
2018-05-18T04:36:27.297Z,56.87
2018-05-18T04:38:54.765Z,59.13
2018-05-18T04:41:22.320Z,55.00
2018-05-18T04:43:49.844Z,51.67
2018-05-18T04:46:17.256Z,60.17
2018-05-18T04:48:45.501Z,58.63
2018-05-18T04:51:13.069Z,53.53
2018-05-18T04:53:40.532Z,61.37
2018-05-18T04:56:07.995Z,58.63
2018-05-18T04:58:35.458Z,61.63
2018-05-18T05:01:03.004Z,58.53
2018-05-18T05:03:30.469Z,51.43
2018-05-18T05:05:58.021Z,60.97
2018-05-18T05:08:25.601Z,56.27
2018-05-18T05:10:53.057Z,56.90
2018-05-18T05:13:20.596Z,51.37
2018-05-18T05:15:48.060Z,54.80
2018-05-18T05:18:16.396Z,53.27
2018-05-18T05:20:43.897Z,52.67
2018-05-18T05:23:11.516Z,52.57
2018-05-18T05:25:38.972Z,51.90
2018-05-18T05:28:06.445Z,49.87
2018-05-18T05:30:33.919Z,50.47
2018-05-18T05:33:01.373Z,47.37
2018-05-18T05:35:28.849Z,46.13
2018-05-18T05:37:56.409Z,46.93
2018-05-18T05:40:23.968Z,48.00
2018-05-18T05:42:51.454Z,50.00
2018-05-18T05:45:19.680Z,45.60
2018-05-18T05:47:47.222Z,47.77
2018-05-18T05:50:14.684Z,46.80
2018-05-18T05:52:42.241Z,43.77
2018-05-18T05:55:09.693Z,44.87
2018-05-18T05:57:37.258Z,50.03
2018-05-18T06:00:04.766Z,46.13
2018-05-18T06:02:32.277Z,43.00
2018-05-18T06:04:59.780Z,49.83
2018-05-18T06:07:27.267Z,39.63
2018-05-18T06:09:55.512Z,58.23
2018-05-18T06:12:22.991Z,46.90
2018-05-18T06:14:50.441Z,48.17
2018-05-18T06:17:17.989Z,56.10
2018-05-18T06:19:45.475Z,51.90
2018-05-18T06:22:13.713Z,49.33
2018-05-18T06:24:41.284Z,47.30
2018-05-18T06:27:08.760Z,51.67
2018-05-18T06:32:09.853Z,51.33
2018-05-18T06:34:37.344Z,47.87
2018-05-18T06:37:04.785Z,46.10
2018-05-18T06:39:32.285Z,45.47
2018-05-18T06:41:59.749Z,48.27
2018-05-18T06:44:27.212Z,49.87
2018-05-18T06:46:54.844Z,43.80
2018-05-18T06:49:22.221Z,47.80
2018-05-18T06:51:49.689Z,49.47
2018-05-18T06:54:17.228Z,48.80
2018-05-18T06:56:44.793Z,41.43
2018-05-18T06:59:12.345Z,43.67
2018-05-18T07:01:39.913Z,50.83
2018-05-18T07:04:07.578Z,49.37
2018-05-18T07:06:34.992Z,45.40
2018-05-18T07:09:02.461Z,43.30
2018-05-18T07:11:29.944Z,43.30
2018-05-18T07:13:57.414Z,42.23
2018-05-18T07:16:24.983Z,42.63
2018-05-18T07:18:52.584Z,38.63
2018-05-18T07:21:20.048Z,46.13
2018-05-18T07:23:47.604Z,49.63
2018-05-18T07:26:15.164Z,39.87
2018-05-18T07:28:42.665Z,40.57
2018-05-18T07:31:10.241Z,39.37
2018-05-18T07:33:37.784Z,38.73
2018-05-18T07:36:05.285Z,41.43
2018-05-18T07:38:32.728Z,41.03
2018-05-18T07:41:00.960Z,38.83
2018-05-18T07:43:28.440Z,44.40
2018-05-18T07:45:55.907Z,42.20
2018-05-18T07:48:23.373Z,40.80
2018-05-18T07:50:51.608Z,37.13
2018-05-18T07:53:19.072Z,34.80
2018-05-18T07:55:46.533Z,37.43
2018-05-18T07:58:14.001Z,38.73
2018-05-18T08:00:41.469Z,32.40
2018-05-18T08:03:08.933Z,32.97
2018-05-18T08:05:36.480Z,38.23
2018-05-18T08:08:04.041Z,34.17
2018-05-18T08:10:31.512Z,36.47
2018-05-18T08:12:59.084Z,35.80
2018-05-18T08:15:27.312Z,35.93
2018-05-18T08:17:54.781Z,34.63
2018-05-18T08:20:23.049Z,36.33
2018-05-18T08:22:50.544Z,32.83
2018-05-18T08:25:18.094Z,31.47
2018-05-18T08:27:45.580Z,34.77
2018-05-18T08:30:13.828Z,34.87
2018-05-18T08:32:41.316Z,30.17
2018-05-18T08:35:09.565Z,31.53
2018-05-18T08:37:37.029Z,30.90
2018-05-18T08:40:04.538Z,31.37
2018-05-18T08:42:32.000Z,26.67
2018-05-18T08:44:59.497Z,36.53
2018-05-18T08:47:27.068Z,33.07
2018-05-18T08:49:54.616Z,29.87
2018-05-18T08:52:22.178Z,33.67
2018-05-18T08:54:49.736Z,30.67
2018-05-18T08:57:17.298Z,27.60
2018-05-18T08:59:44.864Z,32.63
2018-05-18T09:02:12.477Z,29.20
2018-05-18T09:04:39.982Z,30.27
2018-05-18T09:07:07.598Z,30.00
2018-05-18T09:09:35.114Z,30.53
2018-05-18T09:12:02.584Z,26.07
2018-05-18T09:14:30.813Z,27.60
2018-05-18T09:16:58.281Z,26.00
2018-05-18T09:19:25.852Z,26.63
2018-05-18T09:21:53.329Z,27.27
2018-05-18T09:24:20.794Z,29.87
2018-05-18T09:26:49.033Z,23.87
2018-05-18T09:29:16.605Z,31.37
2018-05-18T09:31:44.165Z,25.73
2018-05-18T09:34:11.778Z,28.20
2018-05-18T09:36:39.281Z,23.83
2018-05-18T09:39:06.755Z,21.10
2018-05-18T09:41:34.221Z,24.10
2018-05-18T09:44:01.687Z,23.27
2018-05-18T09:46:29.917Z,28.20
2018-05-18T09:48:57.376Z,24.50
2018-05-18T09:51:24.854Z,24.30
2018-05-18T09:53:52.474Z,28.20
2018-05-18T09:56:19.969Z,27.03
2018-05-18T09:58:47.492Z,28.20
2018-05-18T10:01:14.953Z,26.60
2018-05-18T10:03:42.421Z,26.93
2018-05-18T10:06:09.893Z,23.00
2018-05-18T10:08:37.361Z,29.33
2018-05-18T10:11:04.930Z,22.63
2018-05-18T10:13:32.442Z,23.73
2018-05-18T10:15:59.905Z,22.50
2018-05-18T10:18:27.372Z,22.17
2018-05-18T10:20:54.844Z,17.87
2018-05-18T10:23:22.316Z,18.37
2018-05-18T10:25:49.785Z,20.00
2018-05-18T10:28:17.338Z,17.20
2018-05-18T10:30:44.892Z,17.60
2018-05-18T10:33:12.362Z,21.23
2018-05-18T10:35:39.919Z,14.93
2018-05-18T10:38:07.433Z,16.80
2018-05-18T10:40:34.944Z,18.93
2018-05-18T10:43:02.553Z,18.27
2018-05-18T10:45:30.019Z,20.13
2018-05-18T10:47:57.513Z,18.77
2018-05-18T10:50:25.747Z,17.63
2018-05-18T10:52:53.213Z,16.03
2018-05-18T10:55:20.710Z,17.90
2018-05-18T10:57:48.937Z,20.63
2018-05-18T11:00:16.401Z,19.33
2018-05-18T11:02:44.589Z,18.63
2018-05-18T11:05:12.062Z,15.40
2018-05-18T11:07:39.520Z,16.73
2018-05-18T11:10:06.990Z,14.57
2018-05-18T11:12:34.449Z,19.63
2018-05-18T11:15:01.925Z,16.00
2018-05-18T11:17:29.386Z,21.10
2018-05-18T11:19:57.645Z,13.60
2018-05-18T11:22:25.205Z,14.63
2018-05-18T11:24:52.767Z,17.93
2018-05-18T11:27:20.228Z,16.07
2018-05-18T11:29:47.693Z,16.30
2018-05-18T11:32:15.941Z,15.07
2018-05-18T11:34:43.516Z,19.87
2018-05-18T11:37:11.083Z,15.23
2018-05-18T11:39:38.553Z,14.63
2018-05-18T11:42:06.811Z,13.53
2018-05-18T11:44:34.378Z,17.80
2018-05-18T11:47:01.929Z,21.83
2018-05-18T11:49:29.493Z,15.73
2018-05-18T11:51:56.961Z,15.93
2018-05-18T11:54:24.565Z,17.77
2018-05-18T11:56:52.077Z,15.17
2018-05-18T11:59:19.637Z,17.90
2018-05-18T12:01:47.103Z,16.87
2018-05-18T12:04:14.649Z,16.27
2018-05-18T12:06:42.213Z,14.27
2018-05-18T12:09:09.681Z,14.83
2018-05-18T12:11:37.144Z,18.70
2018-05-18T12:14:04.696Z,15.23
2018-05-18T12:16:32.861Z,14.90
2018-05-18T12:19:00.333Z,14.07
2018-05-18T12:21:27.885Z,14.93
2018-05-18T12:23:55.353Z,12.40
2018-05-18T12:26:22.812Z,16.93
2018-05-18T12:28:51.057Z,19.60
2018-05-18T12:31:18.523Z,19.57
2018-05-18T12:33:46.089Z,16.43
2018-05-18T12:36:13.660Z,18.90
2018-05-18T12:38:41.120Z,16.17
2018-05-18T12:41:08.590Z,15.87
2018-05-18T12:43:36.830Z,17.33
2018-05-18T12:46:04.408Z,17.40
2018-05-18T12:48:31.870Z,14.33
2018-05-18T12:50:59.341Z,17.37
2018-05-18T12:53:27.662Z,13.63
2018-05-18T12:55:55.152Z,14.63
2018-05-18T12:58:22.675Z,14.73
2018-05-18T13:00:50.133Z,14.93
2018-05-18T13:03:17.694Z,17.63
2018-05-18T13:05:45.156Z,19.53
2018-05-18T13:08:12.721Z,18.50
2018-05-18T13:10:40.213Z,16.30
2018-05-18T13:13:07.697Z,16.93
2018-05-18T13:15:35.933Z,16.93
2018-05-18T13:18:03.407Z,15.37
2018-05-18T13:20:30.964Z,14.80
2018-05-18T13:22:58.425Z,17.90
2018-05-18T13:25:25.888Z,17.50
2018-05-18T13:27:53.353Z,13.63
2018-05-18T13:30:20.817Z,18.23
2018-05-18T13:32:48.365Z,12.43
2018-05-18T13:35:15.839Z,18.60
2018-05-18T13:37:44.081Z,14.47
2018-05-18T13:40:11.554Z,15.03
2018-05-18T13:42:39.009Z,15.70
2018-05-18T13:45:06.566Z,12.00
2018-05-18T13:47:33.941Z,17.77
2018-05-18T13:50:01.480Z,13.27
2018-05-18T13:52:29.049Z,14.70
2018-05-18T13:54:56.605Z,16.33
2018-05-18T13:57:24.164Z,15.57
2018-05-18T13:59:51.628Z,15.60
2018-05-18T14:02:19.190Z,17.87
2018-05-18T14:04:46.749Z,14.77
2018-05-18T14:07:14.353Z,17.37
2018-05-18T14:09:41.809Z,18.13
2018-05-18T14:12:09.325Z,17.93
2018-05-18T14:14:36.792Z,14.83
2018-05-18T14:17:04.258Z,15.40
2018-05-18T14:19:31.718Z,16.60
2018-05-18T14:21:59.952Z,18.23
2018-05-18T14:24:27.412Z,15.67
2018-05-18T14:26:54.868Z,15.37
2018-05-18T14:29:22.343Z,16.60
2018-05-18T14:31:49.957Z,15.27
2018-05-18T14:34:17.389Z,13.40
2018-05-18T14:36:44.920Z,11.13
2018-05-18T14:39:12.496Z,12.67
2018-05-18T14:41:39.961Z,17.63
2018-05-18T14:44:07.428Z,16.73
2018-05-18T14:46:35.661Z,13.60
2018-05-18T14:49:03.121Z,20.20
2018-05-18T14:51:30.581Z,11.70
2018-05-18T14:53:58.049Z,13.77
2018-05-18T14:56:25.523Z,13.57
2018-05-18T14:58:53.083Z,14.83
2018-05-18T15:01:20.549Z,17.10
2018-05-18T15:03:48.780Z,17.03
2018-05-18T15:06:16.248Z,13.87
2018-05-18T15:08:43.729Z,12.00
2018-05-18T15:11:11.193Z,12.90
2018-05-18T15:13:38.746Z,13.77
2018-05-18T15:16:06.321Z,15.73
2018-05-18T15:18:33.798Z,15.33
2018-05-18T15:21:02.037Z,15.40
2018-05-18T15:23:30.309Z,12.73
2018-05-18T15:25:57.895Z,12.00
2018-05-18T15:28:25.469Z,14.17
2018-05-18T15:30:53.708Z,16.63
2018-05-18T15:33:21.183Z,18.90
2018-05-18T15:35:48.729Z,14.10
2018-05-18T15:38:16.290Z,15.77
2018-05-18T15:40:43.758Z,17.00
2018-05-18T15:43:12.855Z,12.40
2018-05-18T15:45:40.400Z,13.17
2018-05-18T15:48:07.974Z,15.73
2018-05-18T15:50:35.534Z,13.53
2018-05-18T15:53:03.103Z,9.93
2018-05-18T15:55:30.562Z,13.60
2018-05-18T15:57:58.025Z,14.67
2018-05-18T16:00:26.264Z,13.67
2018-05-18T16:02:53.716Z,13.07
2018-05-18T16:05:21.197Z,11.47
2018-05-18T16:07:48.677Z,17.07
2018-05-18T16:10:16.233Z,15.40
2018-05-18T16:12:44.485Z,12.40
2018-05-18T16:15:11.953Z,13.77
2018-05-18T16:17:39.423Z,12.30
2018-05-18T16:20:06.889Z,10.77
2018-05-18T16:22:35.159Z,14.43
2018-05-18T16:25:02.614Z,9.27
2018-05-18T16:27:30.077Z,11.10
2018-05-18T16:29:58.326Z,11.93
2018-05-18T16:32:25.781Z,11.97
2018-05-18T16:34:53.249Z,13.87
2018-05-18T16:37:20.708Z,14.03
2018-05-18T16:39:48.268Z,13.67
2018-05-18T16:42:15.788Z,11.77
2018-05-18T16:44:43.250Z,17.67
2018-05-18T16:47:10.712Z,14.23
2018-05-18T16:49:38.185Z,10.07
2018-05-18T16:52:05.648Z,13.23
2018-05-18T16:54:33.119Z,10.97
2018-05-18T16:57:00.685Z,12.57
2018-05-18T16:59:28.147Z,12.43
2018-05-18T17:01:55.608Z,10.43
2018-05-18T17:04:23.075Z,9.17
2018-05-18T17:06:51.333Z,12.67
2018-05-18T17:09:18.893Z,11.10
2018-05-18T17:11:46.350Z,9.47
2018-05-18T17:14:13.912Z,9.77
2018-05-18T17:16:41.403Z,11.77
2018-05-18T17:19:09.624Z,8.90
2018-05-18T17:21:37.101Z,15.90
2018-05-18T17:24:04.665Z,13.00
2018-05-18T17:26:32.228Z,10.30
2018-05-18T17:28:59.688Z,12.23
2018-05-18T17:31:27.249Z,11.57
2018-05-18T17:33:54.814Z,12.90
2018-05-18T17:36:22.381Z,10.77
2018-05-18T17:38:49.839Z,7.73
2018-05-18T17:41:17.657Z,8.03
2018-05-18T17:43:45.157Z,8.47
2018-05-18T17:46:12.617Z,7.33
2018-05-18T17:48:40.081Z,9.30
2018-05-18T17:51:08.329Z,6.90
2018-05-18T17:53:35.800Z,10.30
2018-05-18T17:56:03.353Z,9.10
2018-05-18T17:58:30.917Z,8.17
2018-05-18T18:00:58.473Z,12.00
2018-05-18T18:03:26.037Z,13.03
2018-05-18T18:05:53.603Z,12.90
2018-05-18T18:08:21.171Z,8.30
2018-05-18T18:10:48.629Z,9.30
2018-05-18T18:13:16.180Z,8.80
2018-05-18T18:15:43.638Z,8.80
2018-05-18T18:18:11.200Z,10.47
2018-05-18T18:20:38.653Z,9.30
2018-05-18T18:23:06.109Z,8.87
2018-05-18T18:25:33.580Z,10.17
2018-05-18T18:28:01.037Z,8.00
2018-05-18T18:30:28.514Z,12.00
2018-05-18T18:32:56.765Z,11.67
2018-05-18T18:35:24.331Z,10.27
2018-05-18T18:37:51.793Z,8.33
2018-05-18T18:40:20.057Z,18.23
2018-05-18T18:42:47.517Z,8.97
2018-05-18T18:45:14.975Z,9.70
2018-05-18T18:47:42.434Z,12.83
2018-05-18T18:50:09.901Z,15.53
2018-05-18T18:52:37.453Z,13.77
2018-05-18T18:55:04.913Z,14.13
2018-05-18T18:57:32.477Z,16.93
2018-05-18T19:00:00.067Z,18.47
2018-05-18T19:02:27.488Z,13.47
2018-05-18T19:04:55.005Z,13.20
2018-05-18T19:07:22.464Z,10.03
2018-05-18T19:09:49.920Z,13.80
2018-05-18T19:12:17.390Z,10.87
2018-05-18T19:14:44.877Z,9.37
2018-05-18T19:17:12.336Z,9.53
2018-05-18T19:19:39.802Z,14.57
2018-05-18T19:22:07.365Z,19.87
2018-05-18T19:24:35.600Z,16.50
2018-05-18T19:27:03.077Z,13.63
2018-05-18T19:29:30.546Z,12.63
2018-05-18T19:31:58.114Z,12.50
2018-05-18T19:34:25.664Z,12.40
2018-05-18T19:36:53.138Z,11.83
2018-05-18T19:39:20.609Z,12.77
2018-05-18T19:41:48.865Z,10.10
2018-05-18T19:44:17.165Z,13.10
2018-05-18T19:46:45.446Z,12.43
2018-05-18T19:49:13.672Z,10.87
2018-05-18T19:51:41.153Z,10.27
2018-05-18T19:54:08.641Z,11.80
2018-05-18T19:56:36.893Z,10.00
2018-05-18T19:59:04.454Z,11.20
2018-05-18T20:01:32.005Z,13.60
2018-05-18T20:03:59.570Z,12.20
2018-05-18T20:06:27.086Z,13.43
2018-05-18T20:08:54.537Z,14.23
2018-05-18T20:11:22.001Z,24.20
2018-05-18T20:13:49.506Z,12.50
2018-05-18T20:16:16.969Z,12.43
2018-05-18T20:18:44.445Z,11.93
2018-05-18T20:21:12.697Z,12.23
2018-05-18T20:23:40.252Z,12.03
2018-05-18T20:26:07.818Z,11.10
2018-05-18T20:28:35.276Z,32.33
2018-05-18T20:31:02.741Z,14.70
2018-05-18T20:33:30.210Z,31.23
2018-05-18T20:35:57.753Z,20.57
2018-05-18T20:38:25.313Z,26.77
2018-05-18T20:40:52.873Z,13.20
2018-05-18T20:43:20.432Z,19.97
2018-05-18T20:45:48.710Z,13.50
2018-05-18T20:48:16.265Z,16.13
2018-05-18T20:50:43.742Z,15.33
2018-05-18T20:53:11.204Z,12.53
2018-05-18T20:55:38.673Z,14.60
2018-05-18T20:58:06.909Z,14.90
2018-05-18T21:00:34.486Z,10.53
2018-05-18T21:03:01.953Z,12.30
2018-05-18T21:05:29.414Z,11.03
2018-05-18T21:07:56.881Z,13.07
2018-05-18T21:10:25.137Z,14.90
2018-05-18T21:12:52.694Z,13.33
2018-05-18T21:15:20.258Z,9.73
2018-05-18T21:17:47.817Z,10.00
2018-05-18T21:20:15.346Z,12.07
2018-05-18T21:22:42.833Z,11.47
2018-05-18T21:25:10.370Z,10.50
2018-05-18T21:27:37.837Z,9.27
2018-05-18T21:30:05.321Z,12.53
2018-05-18T21:32:32.870Z,10.60
2018-05-18T21:35:00.340Z,14.83
2018-05-18T21:37:27.809Z,11.57
2018-05-18T21:39:56.067Z,13.37
2018-05-18T21:42:23.580Z,11.07
2018-05-18T21:44:51.033Z,13.47
2018-05-18T21:47:18.597Z,10.83
2018-05-18T21:49:46.058Z,9.77
2018-05-18T21:52:13.616Z,8.13
2018-05-18T21:54:41.064Z,11.13
2018-05-18T21:57:08.581Z,10.87
2018-05-18T21:59:36.133Z,9.87
2018-05-18T22:02:03.633Z,10.17
2018-05-18T22:04:31.093Z,11.63
2018-05-18T22:06:58.567Z,10.97
2018-05-18T22:09:26.057Z,9.77
2018-05-18T22:11:53.587Z,14.73
2018-05-18T22:14:21.105Z,17.80
2018-05-18T22:16:48.570Z,10.63
2018-05-18T22:19:16.800Z,19.53
2018-05-18T22:21:44.274Z,12.73
2018-05-18T22:24:11.841Z,13.90
2018-05-18T22:26:40.081Z,13.63
2018-05-18T22:29:07.614Z,11.03
2018-05-18T22:31:35.045Z,16.83
2018-05-18T22:34:02.597Z,14.63
2018-05-18T22:36:30.153Z,13.87
2018-05-18T22:38:57.709Z,10.50
2018-05-18T22:41:25.286Z,11.30
2018-05-18T22:43:52.752Z,10.63
2018-05-18T22:46:20.209Z,13.07
2018-05-18T22:48:47.676Z,15.40
2018-05-18T22:51:15.922Z,13.73
2018-05-18T22:53:43.487Z,11.93
2018-05-18T22:56:10.960Z,14.70
2018-05-18T22:58:38.508Z,13.80
2018-05-18T23:01:06.066Z,16.93
2018-05-18T23:03:34.308Z,13.03
2018-05-18T23:06:01.769Z,17.10
2018-05-18T23:08:29.237Z,20.07
2018-05-18T23:10:56.705Z,23.43
2018-05-18T23:13:24.175Z,17.30
2018-05-18T23:15:51.632Z,19.90
2018-05-18T23:18:19.096Z,20.03
2018-05-18T23:20:46.644Z,21.17
2018-05-18T23:23:14.210Z,14.87
2018-05-18T23:25:41.814Z,23.43
2018-05-18T23:28:09.233Z,20.97
2018-05-18T23:30:36.688Z,17.70
2018-05-18T23:33:04.248Z,20.53
2018-05-18T23:35:31.720Z,22.33
2018-05-18T23:37:59.196Z,13.37
2018-05-18T23:40:27.421Z,14.17
2018-05-18T23:42:54.897Z,15.73
2018-05-18T23:45:22.365Z,12.90
2018-05-18T23:47:49.921Z,11.30
2018-05-18T23:50:17.389Z,12.73
2018-05-18T23:52:44.862Z,15.27
2018-05-18T23:55:13.092Z,15.40
2018-05-18T23:57:40.559Z,18.00
